Nearby METAR Reports

 

KDPA - Chicago/Dupage, Illinois, USA
Distance from station: NW 11mi, 18km
Updated: Mon, 30-Jan-2023 2:52am CST
Light snow, Overcast
Light snow, Overcast
 Wind from NNW
Wind: NNW 13 mph , 20 km/h
Temperature: 14°F , -10°C
Wind Chill: -0°F , -18°C
Dew Point: 5°F , -15°C
Humidity: 67%
Barometer: 30.31 inHg , 1026.4 hPa
Summary: Light Snow
Clouds: Overcast
Visibility: 7 miles , 11 km
Cloud details: Overcast 6500 ft
2023/01/30 08:52 KDPA 300852Z 33011KT 7SM -SN OVC065 M10/M15 A3031 RMK AO2 SLP277 P0000 60000 T11001150 53006
KLOT - Romeoville/Chi, Illinois, USA
Distance from station: S 13mi, 21km
Updated: Mon, 30-Jan-2023 2:55am CST
Light snow, Overcast
Light snow, Overcast
 Wind from NW
Wind: NW 13 mph , 20 km/h
Temperature: 16°F , -9°C
Wind Chill: 2°F , -17°C
Dew Point: 12°F , -11°C
Humidity: 86%
Barometer: 30.33 inHg , 1027.1 hPa
Summary: Light Snow
Clouds: Overcast
Visibility: 9 miles , 14 km
Cloud details: Few Clouds 500 ft
Overcast 6000 ft
2023/01/30 08:55 KLOT 300855Z AUTO 32011KT 9SM -SN FEW005 OVC060 M09/M11 A3033 RMK AO2
 
KORD - Chicago O'Hare, Illinois, USA
Distance from station: NE 17mi, 27km
Updated: Mon, 30-Jan-2023 2:51am CST
Light snow, Overcast
Light snow, Overcast
 Wind from NNW
Wind: NNW 10 mph , 17 km/h
Temperature: 16°F , -9°C
Wind Chill: 4°F , -16°C
Dew Point: 7°F , -14°C
Humidity: 67%
Barometer: 30.31 inHg , 1026.4 hPa
Summary: Light Snow
Clouds: Overcast
Visibility: 4 miles , 6 km
Cloud details: Mostly cloudy 3300 ft
Overcast 4500 ft
2023/01/30 08:51 KORD 300851Z 34009KT 4SM -SN BKN033 OVC045 M09/M14 A3031 RMK AO2 SLP274 P0000 60000 T10941139 53004
KARR - Chicago/Aurora, Illinois, USA
Distance from station: W 19mi, 30km
Updated: Mon, 30-Jan-2023 2:52am CST
Overcast
Overcast
 Wind from NNW
Wind: NNW 13 mph , 20 km/h
Temperature: 12°F , -11°C
Wind Chill: -3°F , -19°C
Dew Point: 5°F , -15°C
Humidity: 73%
Barometer: 30.32 inHg , 1026.8 hPa
Clouds: Overcast
Visibility: 9 miles , 14 km
Cloud details: Overcast 6500 ft
2023/01/30 08:52 KARR 300852Z AUTO 34011KT 9SM OVC065 M11/M15 A3032 RMK AO2 UPB07E16SNB0754E07B17E40 SLP280 P0000 60000 T11061150 53004
 
KJOT - Joliet, Illinois, USA
Distance from station: S 19mi, 31km
Updated: Mon, 30-Jan-2023 2:55am CST
Light snow, Overcast
Light snow, Overcast
 Wind from NNW
Wind: NNW 7 mph , 11 km/h
Temperature: 19°F , -7°C
Wind Chill: 10°F , -12°C
Dew Point: 12°F , -11°C
Humidity: 73%
Barometer: 30.34 inHg , 1027.4 hPa
Summary: Light Snow
Clouds: Overcast
Visibility: 10 miles , 16 km
Cloud details: Overcast 6000 ft
2023/01/30 08:55 KJOT 300855Z AUTO 34006KT 10SM -SN OVC060 M07/M11 A3034 RMK AO2 T10751110
KMDW - Chicago, Illinois, USA
Distance from station: E 19mi, 31km
Updated: Mon, 30-Jan-2023 2:53am CST
Light snow, Overcast
Light snow, Overcast
 Wind from NNW
Wind: NNW 10 mph , 17 km/h
Temperature: 18°F , -8°C
Wind Chill: 6°F , -14°C
Dew Point: 10°F , -12°C
Humidity: 73%
Barometer: 30.31 inHg , 1026.4 hPa
Summary: Light Snow
Clouds: Overcast
Visibility: 8 miles , 13 km
Cloud details: Overcast 2900 ft
2023/01/30 08:53 KMDW 300853Z 34009KT 8SM -SN OVC029 M08/M12 A3031 RMK AO2 SLP282 P0000 60000 T10831122 53005 $
 
KPWK - Palwaukee, Illinois, USA
Distance from station: NNE 25mi, 41km
Updated: Mon, 30-Jan-2023 2:52am CST
Light snow, Overcast
Light snow, Overcast
 Wind from NNW
Wind: NNW 12 mph , 19 km/h
Temperature: 16°F , -9°C
Wind Chill: 3°F , -16°C
Dew Point: 7°F , -14°C
Humidity: 67%
Barometer: 30.33 inHg , 1027.1 hPa
Summary: Light Snow
Clouds: Overcast
Visibility: 6 miles , 10 km
Cloud details: Overcast 7000 ft
2023/01/30 08:52 KPWK 300852Z AUTO 33010KT 6SM -SN OVC070 M09/M14 A3033 RMK AO2 SLP281 P0000 60000 T10941144 53004 $
KC09 - Morris-Washburn, Illinois, USA
Distance from station: SSW 29mi, 47km
Updated: Mon, 30-Jan-2023 2:55am CST
Light snow, Overcast
Light snow, Overcast
 Wind from N
Wind: N 7 mph , 11 km/h
Temperature: 16°F , -9°C
Wind Chill: 6°F , -14°C
Dew Point: 10°F , -12°C
Humidity: 79%
Barometer: 30.33 inHg , 1027.1 hPa
Summary: Light Snow
Clouds: Overcast
Visibility: 10 miles , 16 km
Cloud details: Overcast 6000 ft
2023/01/30 08:55 KC09 300855Z AUTO 35006KT 10SM -SN OVC060 M09/M12 A3033 RMK AO2 T10871121
 
KDKB - De Kalb, Illinois, USA
Distance from station: WNW 31mi, 50km
Updated: Mon, 30-Jan-2023 2:55am CST
Overcast
Overcast
 Wind from NNW
Wind: NNW 7 mph , 11 km/h
Temperature: 10°F , -12°C
Wind Chill: -1°F , -18°C
Dew Point: 3°F , -16°C
Humidity: 72%
Barometer: 30.32 inHg , 1026.8 hPa
Clouds: Overcast
Visibility: 10 miles , 16 km
Cloud details: Overcast 7000 ft
2023/01/30 08:55 KDKB 300855Z AUTO 33006KT 10SM OVC070 M12/M16 A3032 RMK AO2 T11161162
KIGQ - Chicago/Lansing, Illinois, USA
Distance from station: ESE 35mi, 57km
Updated: Mon, 30-Jan-2023 2:55am CST
Light snow, Overcast
Light snow, Overcast
 Wind from NW
Wind: NW 8 mph , 13 km/h
Temperature: 19°F , -7°C
Wind Chill: 9°F , -13°C
Dew Point: 16°F , -9°C
Humidity: 86%
Barometer: 30.31 inHg , 1026.4 hPa
Summary: Light Snow
Clouds: Overcast
Visibility: 10 miles , 16 km
Cloud details: Overcast 2400 ft
2023/01/30 08:55 KIGQ 300855Z AUTO 32007KT 10SM -SN OVC024 M07/M09 A3031 RMK AO2 T10721094
 
KGYY - Gary Regional, Indiana, USA
Distance from station: ESE 38mi, 62km
Updated: Mon, 30-Jan-2023 2:55am CST
Light snow, Overcast
Light snow, Overcast
 Wind from WNW
Wind: WNW 8 mph , 13 km/h
Temperature: 21°F , -6°C
Wind Chill: 11°F , -12°C
Dew Point: 16°F , -9°C
Humidity: 80%
Barometer: 30.31 inHg , 1026.4 hPa
Summary: Light Snow
Clouds: Overcast
Visibility: 10 miles , 16 km
Cloud details: Mostly cloudy 1300 ft
Overcast 2700 ft
2023/01/30 08:55 KGYY 300855Z AUTO 29007KT 10SM -SN BKN013 OVC027 M06/M09 A3031 RMK AO2 T10651086
KUGN - Waukegan, Illinois, USA
Distance from station: NNE 45mi, 73km
Updated: Mon, 30-Jan-2023 2:51am CST
Overcast
Overcast
 Wind from NW
Wind: NW 7 mph , 11 km/h
Temperature: 12°F , -11°C
Wind Chill: 1°F , -17°C
Dew Point: -0°F , -18°C
Humidity: 57%
Barometer: 30.31 inHg , 1026.4 hPa
Clouds: Overcast
Visibility: 10 miles , 16 km
Cloud details: Few Clouds 6500 ft
Overcast 8500 ft
2023/01/30 08:51 KUGN 300851Z AUTO 31006KT 10SM FEW065 OVC085 M11/M18 A3031 RMK AO2 SNE12 SLP284 P0000 60000 T11111183 53005
 
KRPJ - Rochelle/Koritz, Illinois, USA
Distance from station: W 50mi, 80km
Updated: Mon, 30-Jan-2023 2:55am CST
Overcast
Overcast
 Wind from NNW
Wind: NNW 12 mph , 19 km/h
Temperature: 10°F , -12°C
Wind Chill: -5°F , -21°C
Dew Point: 3°F , -16°C
Humidity: 72%
Barometer: 30.35 inHg , 1027.8 hPa
Clouds: Overcast
Visibility: 10 miles , 16 km
Cloud details: Overcast 7000 ft
2023/01/30 08:55 KRPJ 300855Z AUTO 33010KT 10SM OVC070 M12/M16 A3035 RMK AO2 T11181161 TSNO